sensor_id;sensor_type;location;lat;lon;timestamp;P1;durP1;ratioP1;P2;durP2;ratioP2
66272;SDS011;58450;52.150;4.466;2023-04-10T00:01:43;17.55;;;11.27;;
66272;SDS011;58450;52.150;4.466;2023-04-10T00:04:12;17.95;;;11.52;;
66272;SDS011;58450;52.150;4.466;2023-04-10T00:06:40;18.75;;;11.13;;
66272;SDS011;58450;52.150;4.466;2023-04-10T00:09:08;19.13;;;11.77;;
66272;SDS011;58450;52.150;4.466;2023-04-10T00:11:36;16.80;;;11.45;;
66272;SDS011;58450;52.150;4.466;2023-04-10T00:14:03;16.95;;;11.35;;
66272;SDS011;58450;52.150;4.466;2023-04-10T00:16:31;17.05;;;11.25;;
66272;SDS011;58450;52.150;4.466;2023-04-10T00:18:58;17.67;;;11.25;;
66272;SDS011;58450;52.150;4.466;2023-04-10T00:21:27;16.92;;;10.88;;
66272;SDS011;58450;52.150;4.466;2023-04-10T00:23:55;17.90;;;11.48;;
66272;SDS011;58450;52.150;4.466;2023-04-10T00:26:22;15.85;;;10.43;;
66272;SDS011;58450;52.150;4.466;2023-04-10T00:28:51;16.17;;;10.68;;
66272;SDS011;58450;52.150;4.466;2023-04-10T00:31:19;15.38;;;10.90;;
66272;SDS011;58450;52.150;4.466;2023-04-10T00:33:46;16.40;;;10.98;;
66272;SDS011;58450;52.150;4.466;2023-04-10T00:36:13;17.50;;;10.80;;
66272;SDS011;58450;52.150;4.466;2023-04-10T00:38:43;16.38;;;10.63;;
66272;SDS011;58450;52.150;4.466;2023-04-10T00:41:11;15.68;;;10.45;;
66272;SDS011;58450;52.150;4.466;2023-04-10T00:43:38;15.63;;;10.35;;
66272;SDS011;58450;52.150;4.466;2023-04-10T00:46:06;15.88;;;10.32;;
66272;SDS011;58450;52.150;4.466;2023-04-10T00:48:33;15.88;;;10.50;;
66272;SDS011;58450;52.150;4.466;2023-04-10T00:51:02;16.15;;;10.32;;
66272;SDS011;58450;52.150;4.466;2023-04-10T00:53:32;15.80;;;9.70;;
66272;SDS011;58450;52.150;4.466;2023-04-10T00:56:01;15.98;;;10.05;;
66272;SDS011;58450;52.150;4.466;2023-04-10T00:58:29;15.32;;;10.23;;
66272;SDS011;58450;52.150;4.466;2023-04-10T01:00:56;17.00;;;10.93;;
66272;SDS011;58450;52.150;4.466;2023-04-10T01:03:24;17.67;;;11.18;;
66272;SDS011;58450;52.150;4.466;2023-04-10T01:05:54;17.10;;;10.68;;
66272;SDS011;58450;52.150;4.466;2023-04-10T01:08:35;17.40;;;10.85;;
66272;SDS011;58450;52.150;4.466;2023-04-10T01:11:17;16.85;;;10.20;;
66272;SDS011;58450;52.150;4.466;2023-04-10T01:13:58;16.52;;;11.55;;
66272;SDS011;58450;52.150;4.466;2023-04-10T01:16:35;16.25;;;10.52;;
66272;SDS011;58450;52.150;4.466;2023-04-10T01:19:17;17.33;;;10.65;;
66272;SDS011;58450;52.150;4.466;2023-04-10T01:22:02;15.73;;;10.68;;
66272;SDS011;58450;52.150;4.466;2023-04-10T01:24:45;17.42;;;11.35;;
66272;SDS011;58450;52.150;4.466;2023-04-10T01:27:39;18.00;;;10.65;;
66272;SDS011;58450;52.150;4.466;2023-04-10T01:30:22;17.75;;;11.07;;
66272;SDS011;58450;52.150;4.466;2023-04-10T01:32:51;17.15;;;10.90;;
66272;SDS011;58450;52.150;4.466;2023-04-10T01:35:26;18.13;;;10.70;;
66272;SDS011;58450;52.150;4.466;2023-04-10T01:37:56;16.52;;;10.13;;
66272;SDS011;58450;52.150;4.466;2023-04-10T01:40:31;15.68;;;9.88;;
66272;SDS011;58450;52.150;4.466;2023-04-10T01:43:05;17.20;;;10.98;;
66272;SDS011;58450;52.150;4.466;2023-04-10T01:45:37;15.93;;;10.07;;
66272;SDS011;58450;52.150;4.466;2023-04-10T01:48:08;17.27;;;10.63;;
66272;SDS011;58450;52.150;4.466;2023-04-10T01:50:36;16.92;;;10.70;;
66272;SDS011;58450;52.150;4.466;2023-04-10T01:53:05;14.85;;;9.82;;
66272;SDS011;58450;52.150;4.466;2023-04-10T01:55:33;15.13;;;10.52;;
66272;SDS011;58450;52.150;4.466;2023-04-10T01:58:03;16.10;;;10.75;;
66272;SDS011;58450;52.150;4.466;2023-04-10T02:00:37;15.45;;;10.70;;
66272;SDS011;58450;52.150;4.466;2023-04-10T02:03:06;16.30;;;10.70;;
66272;SDS011;58450;52.150;4.466;2023-04-10T02:05:35;16.85;;;10.43;;
66272;SDS011;58450;52.150;4.466;2023-04-10T02:08:20;16.25;;;10.77;;
66272;SDS011;58450;52.150;4.466;2023-04-10T02:10:57;16.75;;;10.32;;
66272;SDS011;58450;52.150;4.466;2023-04-10T02:13:36;15.55;;;9.98;;
66272;SDS011;58450;52.150;4.466;2023-04-10T02:16:08;15.57;;;10.15;;
66272;SDS011;58450;52.150;4.466;2023-04-10T02:18:39;15.93;;;10.15;;
66272;SDS011;58450;52.150;4.466;2023-04-10T02:21:08;16.48;;;10.40;;
66272;SDS011;58450;52.150;4.466;2023-04-10T02:23:36;15.35;;;10.25;;
66272;SDS011;58450;52.150;4.466;2023-04-10T02:26:05;14.95;;;10.23;;
66272;SDS011;58450;52.150;4.466;2023-04-10T02:28:33;15.50;;;9.77;;
66272;SDS011;58450;52.150;4.466;2023-04-10T02:31:04;15.75;;;9.80;;
66272;SDS011;58450;52.150;4.466;2023-04-10T02:33:33;16.65;;;10.35;;
66272;SDS011;58450;52.150;4.466;2023-04-10T02:36:00;17.10;;;10.65;;
66272;SDS011;58450;52.150;4.466;2023-04-10T02:38:28;14.52;;;9.93;;
66272;SDS011;58450;52.150;4.466;2023-04-10T02:40:55;17.40;;;10.10;;
66272;SDS011;58450;52.150;4.466;2023-04-10T02:43:23;14.52;;;9.18;;
66272;SDS011;58450;52.150;4.466;2023-04-10T02:45:51;16.25;;;9.60;;
66272;SDS011;58450;52.150;4.466;2023-04-10T02:48:18;15.95;;;10.23;;
66272;SDS011;58450;52.150;4.466;2023-04-10T02:50:47;14.40;;;9.52;;
66272;SDS011;58450;52.150;4.466;2023-04-10T02:53:15;15.90;;;10.00;;
66272;SDS011;58450;52.150;4.466;2023-04-10T02:55:44;16.60;;;9.93;;
66272;SDS011;58450;52.150;4.466;2023-04-10T02:58:12;13.45;;;9.02;;
66272;SDS011;58450;52.150;4.466;2023-04-10T03:00:40;15.10;;;9.57;;
66272;SDS011;58450;52.150;4.466;2023-04-10T03:03:07;15.65;;;10.00;;
66272;SDS011;58450;52.150;4.466;2023-04-10T03:05:35;14.90;;;10.13;;
66272;SDS011;58450;52.150;4.466;2023-04-10T03:08:04;16.70;;;10.35;;
66272;SDS011;58450;52.150;4.466;2023-04-10T03:10:31;16.35;;;10.05;;
66272;SDS011;58450;52.150;4.466;2023-04-10T03:12:58;17.15;;;9.80;;
66272;SDS011;58450;52.150;4.466;2023-04-10T03:15:26;15.30;;;10.10;;
66272;SDS011;58450;52.150;4.466;2023-04-10T03:17:53;15.65;;;10.25;;
66272;SDS011;58450;52.150;4.466;2023-04-10T03:20:21;16.42;;;10.00;;
66272;SDS011;58450;52.150;4.466;2023-04-10T03:22:48;17.05;;;10.63;;
66272;SDS011;58450;52.150;4.466;2023-04-10T03:25:17;15.90;;;10.65;;
66272;SDS011;58450;52.150;4.466;2023-04-10T03:27:45;16.65;;;10.35;;
66272;SDS011;58450;52.150;4.466;2023-04-10T03:30:13;14.32;;;9.43;;
66272;SDS011;58450;52.150;4.466;2023-04-10T03:32:40;16.45;;;9.90;;
66272;SDS011;58450;52.150;4.466;2023-04-10T03:35:08;15.27;;;10.10;;
66272;SDS011;58450;52.150;4.466;2023-04-10T03:37:36;14.68;;;9.80;;
66272;SDS011;58450;52.150;4.466;2023-04-10T03:40:05;14.45;;;9.43;;
66272;SDS011;58450;52.150;4.466;2023-04-10T03:42:36;16.67;;;10.68;;
66272;SDS011;58450;52.150;4.466;2023-04-10T03:45:03;16.17;;;10.63;;
66272;SDS011;58450;52.150;4.466;2023-04-10T03:47:32;15.82;;;9.70;;
66272;SDS011;58450;52.150;4.466;2023-04-10T03:50:00;13.80;;;9.70;;
66272;SDS011;58450;52.150;4.466;2023-04-10T03:52:29;16.38;;;10.73;;
66272;SDS011;58450;52.150;4.466;2023-04-10T03:54:56;14.50;;;9.50;;
66272;SDS011;58450;52.150;4.466;2023-04-10T03:57:24;13.95;;;9.43;;
66272;SDS011;58450;52.150;4.466;2023-04-10T03:59:53;16.27;;;9.20;;
66272;SDS011;58450;52.150;4.466;2023-04-10T04:02:20;13.88;;;9.25;;
66272;SDS011;58450;52.150;4.466;2023-04-10T04:04:48;13.73;;;9.27;;
66272;SDS011;58450;52.150;4.466;2023-04-10T04:07:15;13.05;;;8.52;;
66272;SDS011;58450;52.150;4.466;2023-04-10T04:09:43;13.27;;;8.93;;
66272;SDS011;58450;52.150;4.466;2023-04-10T04:12:10;13.15;;;8.70;;
66272;SDS011;58450;52.150;4.466;2023-04-10T04:14:38;13.48;;;8.70;;
66272;SDS011;58450;52.150;4.466;2023-04-10T04:17:06;13.45;;;9.13;;
66272;SDS011;58450;52.150;4.466;2023-04-10T04:19:34;12.70;;;8.77;;
66272;SDS011;58450;52.150;4.466;2023-04-10T04:22:01;13.10;;;8.18;;
66272;SDS011;58450;52.150;4.466;2023-04-10T04:24:29;12.82;;;8.13;;
66272;SDS011;58450;52.150;4.466;2023-04-10T04:26:56;13.57;;;8.48;;
66272;SDS011;58450;52.150;4.466;2023-04-10T04:29:24;12.65;;;7.97;;
66272;SDS011;58450;52.150;4.466;2023-04-10T04:31:51;12.80;;;7.95;;
66272;SDS011;58450;52.150;4.466;2023-04-10T04:34:20;13.38;;;8.23;;
66272;SDS011;58450;52.150;4.466;2023-04-10T04:36:47;12.85;;;8.68;;
66272;SDS011;58450;52.150;4.466;2023-04-10T04:39:15;12.15;;;7.88;;
66272;SDS011;58450;52.150;4.466;2023-04-10T04:41:43;11.98;;;7.80;;
66272;SDS011;58450;52.150;4.466;2023-04-10T04:44:10;11.73;;;8.10;;
66272;SDS011;58450;52.150;4.466;2023-04-10T04:46:37;10.95;;;7.50;;
66272;SDS011;58450;52.150;4.466;2023-04-10T04:49:05;10.75;;;7.35;;
66272;SDS011;58450;52.150;4.466;2023-04-10T04:51:34;11.85;;;7.45;;
66272;SDS011;58450;52.150;4.466;2023-04-10T04:54:02;10.50;;;7.30;;
66272;SDS011;58450;52.150;4.466;2023-04-10T04:56:30;10.15;;;7.20;;
66272;SDS011;58450;52.150;4.466;2023-04-10T04:58:58;11.77;;;7.57;;
66272;SDS011;58450;52.150;4.466;2023-04-10T05:01:25;11.70;;;7.70;;
66272;SDS011;58450;52.150;4.466;2023-04-10T05:03:53;10.50;;;6.90;;
66272;SDS011;58450;52.150;4.466;2023-04-10T05:06:20;10.73;;;7.25;;
66272;SDS011;58450;52.150;4.466;2023-04-10T05:08:49;10.55;;;6.95;;
66272;SDS011;58450;52.150;4.466;2023-04-10T05:11:17;11.82;;;7.40;;
66272;SDS011;58450;52.150;4.466;2023-04-10T05:13:45;9.70;;;6.63;;
66272;SDS011;58450;52.150;4.466;2023-04-10T05:16:12;9.73;;;6.57;;
66272;SDS011;58450;52.150;4.466;2023-04-10T05:18:40;10.35;;;6.63;;
66272;SDS011;58450;52.150;4.466;2023-04-10T05:21:08;9.43;;;6.35;;
66272;SDS011;58450;52.150;4.466;2023-04-10T05:23:35;10.40;;;6.80;;
66272;SDS011;58450;52.150;4.466;2023-04-10T05:26:04;10.77;;;7.25;;
66272;SDS011;58450;52.150;4.466;2023-04-10T05:28:32;10.18;;;6.93;;
66272;SDS011;58450;52.150;4.466;2023-04-10T05:31:00;9.27;;;6.35;;
66272;SDS011;58450;52.150;4.466;2023-04-10T05:33:27;9.80;;;6.55;;
66272;SDS011;58450;52.150;4.466;2023-04-10T05:35:55;9.93;;;7.00;;
66272;SDS011;58450;52.150;4.466;2023-04-10T05:38:22;9.25;;;6.43;;
66272;SDS011;58450;52.150;4.466;2023-04-10T05:40:50;9.13;;;6.30;;
66272;SDS011;58450;52.150;4.466;2023-04-10T05:43:19;9.82;;;6.40;;
66272;SDS011;58450;52.150;4.466;2023-04-10T05:45:46;10.57;;;6.90;;
66272;SDS011;58450;52.150;4.466;2023-04-10T05:48:14;10.13;;;5.93;;
66272;SDS011;58450;52.150;4.466;2023-04-10T05:50:41;10.13;;;6.63;;
66272;SDS011;58450;52.150;4.466;2023-04-10T05:53:11;10.55;;;6.93;;
66272;SDS011;58450;52.150;4.466;2023-04-10T05:55:40;9.50;;;6.35;;
66272;SDS011;58450;52.150;4.466;2023-04-10T05:58:07;10.73;;;6.65;;
66272;SDS011;58450;52.150;4.466;2023-04-10T06:00:36;8.63;;;6.15;;
66272;SDS011;58450;52.150;4.466;2023-04-10T06:03:04;9.05;;;6.10;;
66272;SDS011;58450;52.150;4.466;2023-04-10T06:05:31;10.07;;;6.15;;
66272;SDS011;58450;52.150;4.466;2023-04-10T06:07:59;9.75;;;6.03;;
66272;SDS011;58450;52.150;4.466;2023-04-10T06:10:27;9.27;;;6.38;;
66272;SDS011;58450;52.150;4.466;2023-04-10T06:12:55;8.65;;;6.18;;
66272;SDS011;58450;52.150;4.466;2023-04-10T06:15:23;9.80;;;6.50;;
66272;SDS011;58450;52.150;4.466;2023-04-10T06:17:52;10.25;;;6.90;;
66272;SDS011;58450;52.150;4.466;2023-04-10T06:20:20;9.98;;;6.60;;
66272;SDS011;58450;52.150;4.466;2023-04-10T06:22:47;9.57;;;6.53;;
66272;SDS011;58450;52.150;4.466;2023-04-10T06:25:15;10.73;;;6.68;;
66272;SDS011;58450;52.150;4.466;2023-04-10T06:27:43;10.48;;;7.20;;
66272;SDS011;58450;52.150;4.466;2023-04-10T06:30:10;9.65;;;6.43;;
66272;SDS011;58450;52.150;4.466;2023-04-10T06:32:38;10.90;;;7.40;;
66272;SDS011;58450;52.150;4.466;2023-04-10T06:35:08;10.77;;;6.72;;
66272;SDS011;58450;52.150;4.466;2023-04-10T06:37:36;13.18;;;7.68;;
66272;SDS011;58450;52.150;4.466;2023-04-10T06:40:04;10.93;;;7.15;;
66272;SDS011;58450;52.150;4.466;2023-04-10T06:42:34;9.18;;;6.25;;
66272;SDS011;58450;52.150;4.466;2023-04-10T06:45:03;10.80;;;6.75;;
66272;SDS011;58450;52.150;4.466;2023-04-10T06:47:32;9.57;;;6.72;;
66272;SDS011;58450;52.150;4.466;2023-04-10T06:50:00;10.88;;;6.65;;
66272;SDS011;58450;52.150;4.466;2023-04-10T06:52:29;10.18;;;6.80;;
66272;SDS011;58450;52.150;4.466;2023-04-10T06:54:56;11.15;;;6.70;;
66272;SDS011;58450;52.150;4.466;2023-04-10T06:57:23;9.70;;;6.72;;
66272;SDS011;58450;52.150;4.466;2023-04-10T06:59:51;10.07;;;6.60;;
66272;SDS011;58450;52.150;4.466;2023-04-10T07:02:18;9.27;;;6.50;;
66272;SDS011;58450;52.150;4.466;2023-04-10T07:04:46;9.43;;;6.53;;
66272;SDS011;58450;52.150;4.466;2023-04-10T07:07:13;8.98;;;6.40;;
66272;SDS011;58450;52.150;4.466;2023-04-10T07:09:42;9.95;;;6.57;;
66272;SDS011;58450;52.150;4.466;2023-04-10T07:12:10;10.85;;;6.65;;
66272;SDS011;58450;52.150;4.466;2023-04-10T07:14:37;10.10;;;6.55;;
66272;SDS011;58450;52.150;4.466;2023-04-10T07:17:06;10.13;;;6.55;;
66272;SDS011;58450;52.150;4.466;2023-04-10T07:19:34;9.20;;;6.22;;
66272;SDS011;58450;52.150;4.466;2023-04-10T07:22:02;9.38;;;6.38;;
66272;SDS011;58450;52.150;4.466;2023-04-10T07:24:30;10.30;;;6.35;;
66272;SDS011;58450;52.150;4.466;2023-04-10T07:26:59;9.35;;;6.68;;
66272;SDS011;58450;52.150;4.466;2023-04-10T07:29:28;9.68;;;6.70;;
66272;SDS011;58450;52.150;4.466;2023-04-10T07:31:56;10.20;;;6.93;;
66272;SDS011;58450;52.150;4.466;2023-04-10T07:34:24;9.45;;;6.18;;
66272;SDS011;58450;52.150;4.466;2023-04-10T07:36:52;10.25;;;6.88;;
66272;SDS011;58450;52.150;4.466;2023-04-10T07:39:19;9.00;;;6.25;;
66272;SDS011;58450;52.150;4.466;2023-04-10T07:41:47;10.65;;;6.47;;
66272;SDS011;58450;52.150;4.466;2023-04-10T07:44:15;9.93;;;6.93;;
66272;SDS011;58450;52.150;4.466;2023-04-10T07:46:43;9.27;;;6.45;;
66272;SDS011;58450;52.150;4.466;2023-04-10T07:49:10;10.30;;;6.20;;
66272;SDS011;58450;52.150;4.466;2023-04-10T07:51:38;9.35;;;6.22;;
66272;SDS011;58450;52.150;4.466;2023-04-10T07:54:05;9.82;;;6.63;;
66272;SDS011;58450;52.150;4.466;2023-04-10T07:56:33;9.07;;;6.35;;
66272;SDS011;58450;52.150;4.466;2023-04-10T07:59:01;8.63;;;5.80;;
66272;SDS011;58450;52.150;4.466;2023-04-10T08:01:30;9.48;;;5.78;;
66272;SDS011;58450;52.150;4.466;2023-04-10T08:03:58;8.23;;;5.38;;
66272;SDS011;58450;52.150;4.466;2023-04-10T08:06:26;8.52;;;5.75;;
66272;SDS011;58450;52.150;4.466;2023-04-10T08:08:53;9.27;;;6.20;;
66272;SDS011;58450;52.150;4.466;2023-04-10T08:11:21;9.38;;;6.03;;
66272;SDS011;58450;52.150;4.466;2023-04-10T08:13:52;9.10;;;5.70;;
66272;SDS011;58450;52.150;4.466;2023-04-10T08:16:22;9.20;;;6.05;;
66272;SDS011;58450;52.150;4.466;2023-04-10T08:18:52;10.07;;;6.05;;
66272;SDS011;58450;52.150;4.466;2023-04-10T08:21:21;8.90;;;6.22;;
66272;SDS011;58450;52.150;4.466;2023-04-10T08:23:49;8.70;;;5.93;;
66272;SDS011;58450;52.150;4.466;2023-04-10T08:26:17;8.75;;;5.65;;
66272;SDS011;58450;52.150;4.466;2023-04-10T08:28:46;8.77;;;6.30;;
66272;SDS011;58450;52.150;4.466;2023-04-10T08:31:15;9.05;;;6.10;;
66272;SDS011;58450;52.150;4.466;2023-04-10T08:33:43;9.65;;;6.00;;
66272;SDS011;58450;52.150;4.466;2023-04-10T08:36:12;9.68;;;6.05;;
66272;SDS011;58450;52.150;4.466;2023-04-10T08:38:41;8.43;;;5.45;;
66272;SDS011;58450;52.150;4.466;2023-04-10T08:41:09;9.95;;;6.30;;
66272;SDS011;58450;52.150;4.466;2023-04-10T08:43:37;8.73;;;5.60;;
66272;SDS011;58450;52.150;4.466;2023-04-10T08:46:06;8.10;;;5.50;;
66272;SDS011;58450;52.150;4.466;2023-04-10T08:48:34;10.25;;;6.38;;
66272;SDS011;58450;52.150;4.466;2023-04-10T08:51:06;8.90;;;5.70;;
66272;SDS011;58450;52.150;4.466;2023-04-10T08:53:40;9.40;;;5.65;;
66272;SDS011;58450;52.150;4.466;2023-04-10T08:56:11;8.15;;;5.40;;
66272;SDS011;58450;52.150;4.466;2023-04-10T08:58:40;8.30;;;5.50;;
66272;SDS011;58450;52.150;4.466;2023-04-10T09:01:09;7.90;;;5.43;;
66272;SDS011;58450;52.150;4.466;2023-04-10T09:03:37;8.52;;;5.57;;
66272;SDS011;58450;52.150;4.466;2023-04-10T09:06:05;8.15;;;5.75;;
66272;SDS011;58450;52.150;4.466;2023-04-10T09:08:34;8.48;;;5.63;;
66272;SDS011;58450;52.150;4.466;2023-04-10T09:11:02;8.38;;;5.75;;
66272;SDS011;58450;52.150;4.466;2023-04-10T09:13:34;9.48;;;5.70;;
66272;SDS011;58450;52.150;4.466;2023-04-10T09:16:04;9.20;;;6.45;;
66272;SDS011;58450;52.150;4.466;2023-04-10T09:18:39;8.65;;;5.38;;
66272;SDS011;58450;52.150;4.466;2023-04-10T09:21:08;7.93;;;5.32;;
66272;SDS011;58450;52.150;4.466;2023-04-10T09:23:39;9.73;;;5.72;;
66272;SDS011;58450;52.150;4.466;2023-04-10T09:26:20;8.40;;;5.22;;
66272;SDS011;58450;52.150;4.466;2023-04-10T09:28:57;9.15;;;5.90;;
66272;SDS011;58450;52.150;4.466;2023-04-10T09:31:27;8.50;;;5.90;;
66272;SDS011;58450;52.150;4.466;2023-04-10T09:34:06;9.35;;;6.38;;
66272;SDS011;58450;52.150;4.466;2023-04-10T09:36:39;8.75;;;5.97;;
66272;SDS011;58450;52.150;4.466;2023-04-10T09:39:09;8.93;;;6.22;;
66272;SDS011;58450;52.150;4.466;2023-04-10T09:41:47;8.50;;;5.95;;
66272;SDS011;58450;52.150;4.466;2023-04-10T09:44:17;10.50;;;6.40;;
66272;SDS011;58450;52.150;4.466;2023-04-10T09:46:55;8.48;;;5.63;;
66272;SDS011;58450;52.150;4.466;2023-04-10T09:49:22;9.77;;;6.50;;
66272;SDS011;58450;52.150;4.466;2023-04-10T09:51:50;9.80;;;6.63;;
66272;SDS011;58450;52.150;4.466;2023-04-10T09:54:19;8.50;;;5.75;;
66272;SDS011;58450;52.150;4.466;2023-04-10T09:57:03;10.98;;;6.43;;
66272;SDS011;58450;52.150;4.466;2023-04-10T09:59:33;10.52;;;7.03;;
66272;SDS011;58450;52.150;4.466;2023-04-10T10:02:05;10.85;;;7.60;;
66272;SDS011;58450;52.150;4.466;2023-04-10T10:04:33;13.10;;;7.10;;
66272;SDS011;58450;52.150;4.466;2023-04-10T10:07:02;9.98;;;7.15;;
66272;SDS011;58450;52.150;4.466;2023-04-10T10:09:32;12.52;;;6.97;;
66272;SDS011;58450;52.150;4.466;2023-04-10T10:12:01;13.60;;;8.32;;
66272;SDS011;58450;52.150;4.466;2023-04-10T10:14:31;17.58;;;10.00;;
66272;SDS011;58450;52.150;4.466;2023-04-10T10:17:06;21.95;;;12.57;;
66272;SDS011;58450;52.150;4.466;2023-04-10T10:19:39;24.27;;;13.63;;
66272;SDS011;58450;52.150;4.466;2023-04-10T10:22:15;31.65;;;16.23;;
66272;SDS011;58450;52.150;4.466;2023-04-10T10:24:46;32.80;;;17.50;;
66272;SDS011;58450;52.150;4.466;2023-04-10T10:27:15;34.67;;;18.67;;
66272;SDS011;58450;52.150;4.466;2023-04-10T10:29:45;35.88;;;18.88;;
66272;SDS011;58450;52.150;4.466;2023-04-10T10:32:15;37.97;;;20.25;;
66272;SDS011;58450;52.150;4.466;2023-04-10T10:34:44;39.65;;;21.83;;
66272;SDS011;58450;52.150;4.466;2023-04-10T10:37:12;39.25;;;20.65;;
66272;SDS011;58450;52.150;4.466;2023-04-10T10:39:42;41.28;;;22.02;;
66272;SDS011;58450;52.150;4.466;2023-04-10T10:42:22;41.53;;;23.65;;
66272;SDS011;58450;52.150;4.466;2023-04-10T10:44:58;39.25;;;21.92;;
66272;SDS011;58450;52.150;4.466;2023-04-10T10:47:37;35.08;;;20.60;;
66272;SDS011;58450;52.150;4.466;2023-04-10T10:50:10;32.65;;;19.48;;
66272;SDS011;58450;52.150;4.466;2023-04-10T10:52:38;31.65;;;18.27;;
66272;SDS011;58450;52.150;4.466;2023-04-10T10:55:28;28.17;;;16.65;;
66272;SDS011;58450;52.150;4.466;2023-04-10T10:58:03;26.38;;;16.20;;
66272;SDS011;58450;52.150;4.466;2023-04-10T11:03:34;21.13;;;12.55;;
66272;SDS011;58450;52.150;4.466;2023-04-10T11:06:02;19.40;;;11.88;;
66272;SDS011;58450;52.150;4.466;2023-04-10T11:08:34;18.75;;;11.40;;
66272;SDS011;58450;52.150;4.466;2023-04-10T11:11:11;15.98;;;9.75;;
66272;SDS011;58450;52.150;4.466;2023-04-10T11:16:45;13.85;;;9.10;;
66272;SDS011;58450;52.150;4.466;2023-04-10T11:19:13;13.77;;;9.15;;
66272;SDS011;58450;52.150;4.466;2023-04-10T11:21:58;13.27;;;8.95;;
66272;SDS011;58450;52.150;4.466;2023-04-10T11:24:29;9.20;;;5.90;;
66272;SDS011;58450;52.150;4.466;2023-04-10T11:30:27;10.95;;;6.90;;
66272;SDS011;58450;52.150;4.466;2023-04-10T11:32:57;9.23;;;5.53;;
66272;SDS011;58450;52.150;4.466;2023-04-10T11:35:26;8.18;;;5.32;;
66272;SDS011;58450;52.150;4.466;2023-04-10T11:40:53;9.07;;;5.40;;
66272;SDS011;58450;52.150;4.466;2023-04-10T11:43:28;7.32;;;5.13;;
66272;SDS011;58450;52.150;4.466;2023-04-10T11:45:59;7.53;;;4.80;;
66272;SDS011;58450;52.150;4.466;2023-04-10T11:48:28;7.97;;;4.72;;
66272;SDS011;58450;52.150;4.466;2023-04-10T11:50:56;7.68;;;5.18;;
66272;SDS011;58450;52.150;4.466;2023-04-10T11:53:26;7.03;;;4.80;;
66272;SDS011;58450;52.150;4.466;2023-04-10T11:55:54;8.65;;;5.03;;
66272;SDS011;58450;52.150;4.466;2023-04-10T11:58:23;7.65;;;5.28;;
66272;SDS011;58450;52.150;4.466;2023-04-10T12:01:00;8.75;;;5.43;;
66272;SDS011;58450;52.150;4.466;2023-04-10T12:03:33;10.10;;;5.90;;
66272;SDS011;58450;52.150;4.466;2023-04-10T12:06:03;9.63;;;5.75;;
66272;SDS011;58450;52.150;4.466;2023-04-10T12:08:35;9.48;;;5.78;;
66272;SDS011;58450;52.150;4.466;2023-04-10T12:11:05;8.65;;;5.45;;
66272;SDS011;58450;52.150;4.466;2023-04-10T12:13:34;8.73;;;5.28;;
66272;SDS011;58450;52.150;4.466;2023-04-10T12:16:04;6.72;;;4.82;;
66272;SDS011;58450;52.150;4.466;2023-04-10T12:18:35;7.50;;;4.50;;
66272;SDS011;58450;52.150;4.466;2023-04-10T12:21:04;7.75;;;5.03;;
66272;SDS011;58450;52.150;4.466;2023-04-10T12:23:34;6.70;;;4.30;;
66272;SDS011;58450;52.150;4.466;2023-04-10T12:26:08;8.32;;;4.40;;
66272;SDS011;58450;52.150;4.466;2023-04-10T12:28:39;6.68;;;4.57;;
66272;SDS011;58450;52.150;4.466;2023-04-10T12:31:10;10.82;;;5.00;;
66272;SDS011;58450;52.150;4.466;2023-04-10T12:33:38;7.13;;;4.78;;
66272;SDS011;58450;52.150;4.466;2023-04-10T12:36:18;7.40;;;4.80;;
66272;SDS011;58450;52.150;4.466;2023-04-10T12:38:47;6.70;;;4.57;;
66272;SDS011;58450;52.150;4.466;2023-04-10T12:41:19;7.88;;;5.10;;
66272;SDS011;58450;52.150;4.466;2023-04-10T12:43:49;7.32;;;4.43;;
66272;SDS011;58450;52.150;4.466;2023-04-10T12:46:23;7.75;;;4.85;;
66272;SDS011;58450;52.150;4.466;2023-04-10T12:48:53;8.77;;;4.95;;
66272;SDS011;58450;52.150;4.466;2023-04-10T12:54:07;7.65;;;4.95;;
66272;SDS011;58450;52.150;4.466;2023-04-10T12:56:39;9.38;;;5.70;;
66272;SDS011;58450;52.150;4.466;2023-04-10T12:59:07;7.97;;;5.53;;
66272;SDS011;58450;52.150;4.466;2023-04-10T13:01:37;8.40;;;5.68;;
66272;SDS011;58450;52.150;4.466;2023-04-10T13:04:05;8.80;;;5.75;;
66272;SDS011;58450;52.150;4.466;2023-04-10T13:06:40;8.82;;;5.72;;
66272;SDS011;58450;52.150;4.466;2023-04-10T13:09:09;9.48;;;5.90;;
66272;SDS011;58450;52.150;4.466;2023-04-10T13:11:38;9.20;;;5.53;;
66272;SDS011;58450;52.150;4.466;2023-04-10T13:14:06;10.48;;;5.90;;
66272;SDS011;58450;52.150;4.466;2023-04-10T13:16:34;9.68;;;5.80;;
66272;SDS011;58450;52.150;4.466;2023-04-10T13:19:04;9.65;;;6.45;;
66272;SDS011;58450;52.150;4.466;2023-04-10T13:21:31;9.48;;;6.47;;
66272;SDS011;58450;52.150;4.466;2023-04-10T13:23:59;10.57;;;7.10;;
66272;SDS011;58450;52.150;4.466;2023-04-10T13:26:26;9.32;;;6.50;;
66272;SDS011;58450;52.150;4.466;2023-04-10T13:28:53;10.10;;;6.30;;
66272;SDS011;58450;52.150;4.466;2023-04-10T13:31:21;9.98;;;6.50;;
66272;SDS011;58450;52.150;4.466;2023-04-10T13:33:48;9.45;;;6.50;;
66272;SDS011;58450;52.150;4.466;2023-04-10T13:36:17;10.30;;;6.22;;
66272;SDS011;58450;52.150;4.466;2023-04-10T13:38:45;8.95;;;6.28;;
66272;SDS011;58450;52.150;4.466;2023-04-10T13:41:12;10.05;;;6.30;;
66272;SDS011;58450;52.150;4.466;2023-04-10T13:43:39;10.73;;;6.00;;
66272;SDS011;58450;52.150;4.466;2023-04-10T13:46:07;11.90;;;7.45;;
66272;SDS011;58450;52.150;4.466;2023-04-10T13:48:34;9.77;;;6.40;;
66272;SDS011;58450;52.150;4.466;2023-04-10T13:51:06;9.15;;;6.10;;
66272;SDS011;58450;52.150;4.466;2023-04-10T13:53:35;11.02;;;7.03;;
66272;SDS011;58450;52.150;4.466;2023-04-10T13:56:03;10.32;;;7.30;;
66272;SDS011;58450;52.150;4.466;2023-04-10T13:58:32;12.85;;;7.75;;
66272;SDS011;58450;52.150;4.466;2023-04-10T14:01:00;11.60;;;8.18;;
66272;SDS011;58450;52.150;4.466;2023-04-10T14:03:28;10.07;;;7.15;;
66272;SDS011;58450;52.150;4.466;2023-04-10T14:05:55;12.55;;;7.55;;
66272;SDS011;58450;52.150;4.466;2023-04-10T14:08:23;10.82;;;7.35;;
66272;SDS011;58450;52.150;4.466;2023-04-10T14:10:52;10.50;;;7.03;;
66272;SDS011;58450;52.150;4.466;2023-04-10T14:13:19;11.07;;;6.93;;
66272;SDS011;58450;52.150;4.466;2023-04-10T14:15:46;10.80;;;6.85;;
66272;SDS011;58450;52.150;4.466;2023-04-10T14:18:16;9.48;;;6.28;;
66272;SDS011;58450;52.150;4.466;2023-04-10T14:20:44;8.68;;;5.80;;
66272;SDS011;58450;52.150;4.466;2023-04-10T14:23:11;9.55;;;6.25;;
66272;SDS011;58450;52.150;4.466;2023-04-10T14:25:42;9.82;;;5.90;;
66272;SDS011;58450;52.150;4.466;2023-04-10T14:28:12;8.32;;;5.60;;
66272;SDS011;58450;52.150;4.466;2023-04-10T14:30:42;10.20;;;6.43;;
66272;SDS011;58450;52.150;4.466;2023-04-10T14:33:10;9.23;;;6.35;;
66272;SDS011;58450;52.150;4.466;2023-04-10T14:35:38;10.10;;;6.32;;
66272;SDS011;58450;52.150;4.466;2023-04-10T14:38:05;9.50;;;6.45;;
66272;SDS011;58450;52.150;4.466;2023-04-10T14:40:33;11.00;;;6.32;;
66272;SDS011;58450;52.150;4.466;2023-04-10T14:43:01;9.85;;;6.32;;
66272;SDS011;58450;52.150;4.466;2023-04-10T14:45:30;9.70;;;6.18;;
66272;SDS011;58450;52.150;4.466;2023-04-10T14:47:58;11.32;;;7.30;;
66272;SDS011;58450;52.150;4.466;2023-04-10T14:50:27;9.60;;;6.38;;
66272;SDS011;58450;52.150;4.466;2023-04-10T14:52:56;9.13;;;6.35;;
66272;SDS011;58450;52.150;4.466;2023-04-10T14:55:25;10.27;;;6.65;;
66272;SDS011;58450;52.150;4.466;2023-04-10T14:57:54;11.25;;;6.95;;
66272;SDS011;58450;52.150;4.466;2023-04-10T15:00:22;10.55;;;6.93;;
66272;SDS011;58450;52.150;4.466;2023-04-10T15:02:51;11.38;;;7.30;;
66272;SDS011;58450;52.150;4.466;2023-04-10T15:05:22;12.27;;;7.53;;